Weather at Oostmalle Airfield

Public forecast

Using degrees Celsius for public forecast. Weather courtesy of forecast.io.

Closest aviation weather report (METAR) to Oostmalle Airfield

Closest report is Antwerp International Airport (Deurne), 12.2 nm (22.6 km) WSW.

2024/07/25 07:20 (retrieved 10 minutes ago)

EBAW 250720Z 21004KT 160V240 CAVOK 19/13 Q1016 NOSIG

Closest aviation forecast (TAF) to Oostmalle Airfield

Closest forecast is Gilze Rijen Air Base, 19.0 nm (35.2 km) NNE.

2024/07/25 05:03 (retrieved 2 hours ago)

TAF TAF EHGR 250436Z 2505/2517 17005KT CAVOK BECMG 2511/2513 21008KT